createdAt,value
2022-09-28T00:05:08.283Z,8.60
2022-09-28T00:07:42.070Z,8.70
2022-09-28T00:10:18.560Z,9.20
2022-09-28T00:13:16.670Z,8.70
2022-09-28T00:16:28.905Z,8.90
2022-09-28T00:27:14.056Z,8.80
2022-09-28T00:30:35.771Z,8.60
2022-09-28T00:33:05.331Z,8.60
2022-09-28T07:15:56.069Z,9.50
2022-09-28T07:18:23.696Z,9.60
2022-09-28T07:20:54.589Z,9.50
2022-09-28T07:23:21.590Z,9.70
2022-09-28T07:25:50.254Z,9.50
2022-09-28T07:28:17.475Z,9.70
2022-09-28T07:30:44.947Z,9.80
2022-09-28T07:33:14.521Z,9.90
2022-09-28T07:35:44.716Z,10.20
2022-09-28T07:38:11.562Z,10.50
2022-09-28T07:40:57.059Z,10.50
2022-09-28T07:43:24.108Z,10.50
2022-09-28T07:45:52.908Z,10.50
2022-09-28T07:48:20.178Z,10.60
2022-09-28T07:50:52.253Z,10.50
2022-09-28T07:53:20.229Z,10.50
2022-09-28T07:56:05.703Z,10.40
2022-09-28T07:58:33.019Z,10.40
2022-09-28T08:01:04.439Z,10.40
2022-09-28T08:03:31.373Z,10.30
2022-09-28T08:06:00.173Z,10.20
2022-09-28T08:08:27.666Z,10.00
2022-09-28T08:10:58.246Z,10.40
2022-09-28T08:13:27.704Z,10.50
2022-09-28T08:15:54.934Z,10.40
2022-09-28T08:18:21.951Z,10.00
2022-09-28T08:21:11.090Z,10.20
2022-09-28T08:23:38.478Z,10.40
2022-09-28T08:26:06.729Z,10.10
2022-09-28T08:28:35.423Z,10.20
2022-09-28T08:31:02.569Z,10.50
2022-09-28T08:33:29.803Z,10.60
2022-09-28T08:35:57.988Z,10.40
2022-09-28T08:38:27.959Z,10.30
2022-09-28T08:41:34.969Z,10.30
2022-09-28T08:44:24.107Z,10.10
2022-09-28T08:47:04.733Z,10.20
2022-09-28T08:49:47.571Z,10.20
2022-09-28T08:52:28.373Z,10.40
